sensor_id;sensor_type;location;lat;lon;timestamp;P1;durP1;ratioP1;P2;durP2;ratioP2
6517;SDS011;3292;48.944;9.240;2024-03-06T00:00:29;9.33;;;8.23;;
6517;SDS011;3292;48.944;9.240;2024-03-06T00:02:58;15.50;;;8.80;;
6517;SDS011;3292;48.944;9.240;2024-03-06T00:05:25;16.63;;;12.53;;
6517;SDS011;3292;48.944;9.240;2024-03-06T00:07:51;17.07;;;11.70;;
6517;SDS011;3292;48.944;9.240;2024-03-06T00:10:19;15.73;;;12.97;;
6517;SDS011;3292;48.944;9.240;2024-03-06T00:12:46;14.77;;;12.33;;
6517;SDS011;3292;48.944;9.240;2024-03-06T00:15:13;13.90;;;12.10;;
6517;SDS011;3292;48.944;9.240;2024-03-06T00:17:40;13.97;;;11.70;;
6517;SDS011;3292;48.944;9.240;2024-03-06T00:20:07;13.43;;;11.07;;
6517;SDS011;3292;48.944;9.240;2024-03-06T00:22:35;12.13;;;10.83;;
6517;SDS011;3292;48.944;9.240;2024-03-06T00:25:02;13.67;;;8.30;;
6517;SDS011;3292;48.944;9.240;2024-03-06T00:27:31;10.17;;;8.37;;
6517;SDS011;3292;48.944;9.240;2024-03-06T00:29:58;11.60;;;8.80;;
6517;SDS011;3292;48.944;9.240;2024-03-06T00:32:25;9.07;;;8.00;;
6517;SDS011;3292;48.944;9.240;2024-03-06T00:34:53;11.57;;;9.30;;
6517;SDS011;3292;48.944;9.240;2024-03-06T00:37:20;11.47;;;8.93;;
6517;SDS011;3292;48.944;9.240;2024-03-06T00:39:47;12.63;;;8.87;;
6517;SDS011;3292;48.944;9.240;2024-03-06T00:42:14;13.37;;;9.30;;
6517;SDS011;3292;48.944;9.240;2024-03-06T00:44:42;9.80;;;8.80;;
6517;SDS011;3292;48.944;9.240;2024-03-06T00:47:09;9.13;;;7.90;;
6517;SDS011;3292;48.944;9.240;2024-03-06T00:49:35;8.37;;;7.33;;
6517;SDS011;3292;48.944;9.240;2024-03-06T00:52:07;8.73;;;7.83;;
6517;SDS011;3292;48.944;9.240;2024-03-06T00:54:35;9.90;;;8.10;;
6517;SDS011;3292;48.944;9.240;2024-03-06T00:57:02;9.97;;;7.60;;
6517;SDS011;3292;48.944;9.240;2024-03-06T00:59:29;11.27;;;8.33;;
6517;SDS011;3292;48.944;9.240;2024-03-06T01:01:57;9.47;;;8.57;;
6517;SDS011;3292;48.944;9.240;2024-03-06T01:04:24;8.60;;;7.70;;
6517;SDS011;3292;48.944;9.240;2024-03-06T01:06:51;11.00;;;8.47;;
6517;SDS011;3292;48.944;9.240;2024-03-06T01:09:17;9.90;;;8.70;;
6517;SDS011;3292;48.944;9.240;2024-03-06T01:11:44;9.30;;;8.30;;
6517;SDS011;3292;48.944;9.240;2024-03-06T01:14:13;12.20;;;8.47;;
6517;SDS011;3292;48.944;9.240;2024-03-06T01:16:39;9.27;;;8.27;;
6517;SDS011;3292;48.944;9.240;2024-03-06T01:19:08;9.13;;;8.23;;
6517;SDS011;3292;48.944;9.240;2024-03-06T01:21:34;9.53;;;8.27;;
6517;SDS011;3292;48.944;9.240;2024-03-06T01:24:01;9.47;;;8.43;;
6517;SDS011;3292;48.944;9.240;2024-03-06T01:26:28;9.40;;;8.27;;
6517;SDS011;3292;48.944;9.240;2024-03-06T01:28:55;10.17;;;9.00;;
6517;SDS011;3292;48.944;9.240;2024-03-06T01:31:22;9.13;;;8.13;;
6517;SDS011;3292;48.944;9.240;2024-03-06T01:33:49;9.40;;;8.37;;
6517;SDS011;3292;48.944;9.240;2024-03-06T01:36:17;8.93;;;8.03;;
6517;SDS011;3292;48.944;9.240;2024-03-06T01:38:44;9.50;;;7.43;;
6517;SDS011;3292;48.944;9.240;2024-03-06T01:41:11;9.33;;;8.10;;
6517;SDS011;3292;48.944;9.240;2024-03-06T01:43:38;10.07;;;8.17;;
6517;SDS011;3292;48.944;9.240;2024-03-06T01:46:06;8.27;;;7.47;;
6517;SDS011;3292;48.944;9.240;2024-03-06T01:48:32;8.87;;;7.73;;
6517;SDS011;3292;48.944;9.240;2024-03-06T01:51:01;12.00;;;9.07;;
6517;SDS011;3292;48.944;9.240;2024-03-06T01:53:31;8.43;;;7.60;;
6517;SDS011;3292;48.944;9.240;2024-03-06T01:55:59;10.10;;;7.97;;
6517;SDS011;3292;48.944;9.240;2024-03-06T01:58:26;9.70;;;8.70;;
6517;SDS011;3292;48.944;9.240;2024-03-06T02:00:54;9.60;;;7.90;;
6517;SDS011;3292;48.944;9.240;2024-03-06T02:03:21;8.60;;;7.80;;
6517;SDS011;3292;48.944;9.240;2024-03-06T02:05:48;10.47;;;8.13;;
6517;SDS011;3292;48.944;9.240;2024-03-06T02:08:15;11.50;;;8.93;;
6517;SDS011;3292;48.944;9.240;2024-03-06T02:10:45;9.77;;;8.77;;
6517;SDS011;3292;48.944;9.240;2024-03-06T02:13:12;10.33;;;8.27;;
6517;SDS011;3292;48.944;9.240;2024-03-06T02:15:39;9.53;;;7.97;;
6517;SDS011;3292;48.944;9.240;2024-03-06T02:18:07;8.17;;;7.17;;
6517;SDS011;3292;48.944;9.240;2024-03-06T02:20:37;9.60;;;7.57;;
6517;SDS011;3292;48.944;9.240;2024-03-06T02:23:05;10.07;;;8.77;;
6517;SDS011;3292;48.944;9.240;2024-03-06T02:25:32;9.87;;;8.87;;
6517;SDS011;3292;48.944;9.240;2024-03-06T02:27:59;11.17;;;8.63;;
6517;SDS011;3292;48.944;9.240;2024-03-06T02:30:26;9.23;;;8.40;;
6517;SDS011;3292;48.944;9.240;2024-03-06T02:32:52;10.43;;;8.63;;
6517;SDS011;3292;48.944;9.240;2024-03-06T02:35:19;8.70;;;7.70;;
6517;SDS011;3292;48.944;9.240;2024-03-06T02:37:48;9.43;;;8.43;;
6517;SDS011;3292;48.944;9.240;2024-03-06T02:40:15;10.23;;;9.00;;
6517;SDS011;3292;48.944;9.240;2024-03-06T02:42:41;11.17;;;9.53;;
6517;SDS011;3292;48.944;9.240;2024-03-06T02:45:08;10.33;;;8.20;;
6517;SDS011;3292;48.944;9.240;2024-03-06T02:47:35;10.27;;;9.13;;
6517;SDS011;3292;48.944;9.240;2024-03-06T02:50:02;11.10;;;8.67;;
6517;SDS011;3292;48.944;9.240;2024-03-06T02:52:30;11.33;;;9.63;;
6517;SDS011;3292;48.944;9.240;2024-03-06T02:54:58;10.57;;;9.50;;
6517;SDS011;3292;48.944;9.240;2024-03-06T02:57:26;9.53;;;8.63;;
6517;SDS011;3292;48.944;9.240;2024-03-06T02:59:53;9.07;;;8.17;;
6517;SDS011;3292;48.944;9.240;2024-03-06T03:02:21;9.50;;;8.47;;
6517;SDS011;3292;48.944;9.240;2024-03-06T03:04:48;9.90;;;8.67;;
6517;SDS011;3292;48.944;9.240;2024-03-06T03:07:15;10.10;;;9.10;;
6517;SDS011;3292;48.944;9.240;2024-03-06T03:09:42;9.57;;;8.10;;
6517;SDS011;3292;48.944;9.240;2024-03-06T03:12:10;9.43;;;8.33;;
6517;SDS011;3292;48.944;9.240;2024-03-06T03:14:37;11.00;;;8.67;;
6517;SDS011;3292;48.944;9.240;2024-03-06T03:17:06;8.93;;;8.03;;
6517;SDS011;3292;48.944;9.240;2024-03-06T03:19:34;9.83;;;8.67;;
6517;SDS011;3292;48.944;9.240;2024-03-06T03:22:01;10.53;;;8.40;;
6517;SDS011;3292;48.944;9.240;2024-03-06T03:24:29;9.37;;;8.47;;
6517;SDS011;3292;48.944;9.240;2024-03-06T03:26:56;9.87;;;8.60;;
6517;SDS011;3292;48.944;9.240;2024-03-06T03:29:24;11.40;;;8.63;;
6517;SDS011;3292;48.944;9.240;2024-03-06T03:31:51;11.70;;;8.17;;
6517;SDS011;3292;48.944;9.240;2024-03-06T03:34:18;10.40;;;7.97;;
6517;SDS011;3292;48.944;9.240;2024-03-06T03:36:46;9.50;;;8.03;;
6517;SDS011;3292;48.944;9.240;2024-03-06T03:39:14;12.30;;;7.97;;
6517;SDS011;3292;48.944;9.240;2024-03-06T03:41:44;8.67;;;7.70;;
6517;SDS011;3292;48.944;9.240;2024-03-06T03:44:11;9.13;;;8.23;;
6517;SDS011;3292;48.944;9.240;2024-03-06T03:46:40;10.33;;;8.77;;
6517;SDS011;3292;48.944;9.240;2024-03-06T03:49:07;11.17;;;8.70;;
6517;SDS011;3292;48.944;9.240;2024-03-06T03:51:34;10.40;;;8.10;;
6517;SDS011;3292;48.944;9.240;2024-03-06T03:54:01;10.33;;;8.60;;
6517;SDS011;3292;48.944;9.240;2024-03-06T03:56:28;9.57;;;8.57;;
6517;SDS011;3292;48.944;9.240;2024-03-06T03:58:55;12.70;;;9.07;;
6517;SDS011;3292;48.944;9.240;2024-03-06T04:01:23;9.43;;;8.43;;
6517;SDS011;3292;48.944;9.240;2024-03-06T04:03:51;9.90;;;9.00;;
6517;SDS011;3292;48.944;9.240;2024-03-06T04:06:18;9.97;;;8.97;;
6517;SDS011;3292;48.944;9.240;2024-03-06T04:08:45;9.93;;;8.77;;
6517;SDS011;3292;48.944;9.240;2024-03-06T04:11:12;11.33;;;8.20;;
6517;SDS011;3292;48.944;9.240;2024-03-06T04:13:39;9.47;;;8.50;;
6517;SDS011;3292;48.944;9.240;2024-03-06T04:16:05;10.03;;;9.03;;
6517;SDS011;3292;48.944;9.240;2024-03-06T04:18:32;9.80;;;8.77;;
6517;SDS011;3292;48.944;9.240;2024-03-06T04:21:03;11.67;;;8.87;;
6517;SDS011;3292;48.944;9.240;2024-03-06T04:23:30;9.57;;;8.67;;
6517;SDS011;3292;48.944;9.240;2024-03-06T04:25:57;9.93;;;8.60;;
6517;SDS011;3292;48.944;9.240;2024-03-06T04:28:24;10.23;;;8.60;;
6517;SDS011;3292;48.944;9.240;2024-03-06T04:30:51;9.13;;;8.23;;
6517;SDS011;3292;48.944;9.240;2024-03-06T04:33:18;8.53;;;7.63;;
6517;SDS011;3292;48.944;9.240;2024-03-06T04:35:45;11.30;;;8.67;;
6517;SDS011;3292;48.944;9.240;2024-03-06T04:38:14;9.43;;;8.27;;
6517;SDS011;3292;48.944;9.240;2024-03-06T04:40:41;9.47;;;8.57;;
6517;SDS011;3292;48.944;9.240;2024-03-06T04:43:07;10.03;;;8.97;;
6517;SDS011;3292;48.944;9.240;2024-03-06T04:45:34;10.20;;;8.37;;
6517;SDS011;3292;48.944;9.240;2024-03-06T04:48:01;12.07;;;8.67;;
6517;SDS011;3292;48.944;9.240;2024-03-06T04:50:28;8.57;;;7.43;;
6517;SDS011;3292;48.944;9.240;2024-03-06T04:52:55;9.00;;;7.73;;
6517;SDS011;3292;48.944;9.240;2024-03-06T04:55:23;9.47;;;7.73;;
6517;SDS011;3292;48.944;9.240;2024-03-06T04:57:51;9.93;;;7.93;;
6517;SDS011;3292;48.944;9.240;2024-03-06T05:00:19;9.23;;;7.83;;
6517;SDS011;3292;48.944;9.240;2024-03-06T05:02:46;8.70;;;7.87;;
6517;SDS011;3292;48.944;9.240;2024-03-06T05:05:14;9.13;;;7.83;;
6517;SDS011;3292;48.944;9.240;2024-03-06T05:07:41;9.03;;;7.37;;
6517;SDS011;3292;48.944;9.240;2024-03-06T05:10:08;10.00;;;8.23;;
6517;SDS011;3292;48.944;9.240;2024-03-06T05:12:37;9.47;;;7.83;;
6517;SDS011;3292;48.944;9.240;2024-03-06T05:15:04;9.30;;;8.30;;
6517;SDS011;3292;48.944;9.240;2024-03-06T05:17:31;9.43;;;8.53;;
6517;SDS011;3292;48.944;9.240;2024-03-06T05:19:58;10.33;;;8.77;;
6517;SDS011;3292;48.944;9.240;2024-03-06T05:22:25;9.57;;;8.60;;
6517;SDS011;3292;48.944;9.240;2024-03-06T05:24:52;10.10;;;8.40;;
6517;SDS011;3292;48.944;9.240;2024-03-06T05:27:20;9.90;;;7.93;;
6517;SDS011;3292;48.944;9.240;2024-03-06T05:29:48;8.67;;;7.60;;
6517;SDS011;3292;48.944;9.240;2024-03-06T05:32:15;9.63;;;7.60;;
6517;SDS011;3292;48.944;9.240;2024-03-06T05:34:41;8.00;;;7.20;;
6517;SDS011;3292;48.944;9.240;2024-03-06T05:37:08;8.80;;;7.47;;
6517;SDS011;3292;48.944;9.240;2024-03-06T05:39:35;9.33;;;8.53;;
6517;SDS011;3292;48.944;9.240;2024-03-06T05:42:03;10.20;;;8.07;;
6517;SDS011;3292;48.944;9.240;2024-03-06T05:44:30;9.63;;;8.00;;
6517;SDS011;3292;48.944;9.240;2024-03-06T05:46:59;9.60;;;7.63;;
6517;SDS011;3292;48.944;9.240;2024-03-06T05:49:27;8.63;;;7.73;;
6517;SDS011;3292;48.944;9.240;2024-03-06T05:51:54;12.30;;;8.97;;
6517;SDS011;3292;48.944;9.240;2024-03-06T05:54:21;10.63;;;8.17;;
6517;SDS011;3292;48.944;9.240;2024-03-06T05:56:49;9.60;;;8.53;;
6517;SDS011;3292;48.944;9.240;2024-03-06T05:59:18;9.70;;;8.70;;
6517;SDS011;3292;48.944;9.240;2024-03-06T06:01:45;10.03;;;8.67;;
6517;SDS011;3292;48.944;9.240;2024-03-06T06:04:14;10.20;;;8.13;;
6517;SDS011;3292;48.944;9.240;2024-03-06T06:06:43;10.17;;;8.00;;
6517;SDS011;3292;48.944;9.240;2024-03-06T06:09:10;11.33;;;8.83;;
6517;SDS011;3292;48.944;9.240;2024-03-06T06:11:40;11.90;;;8.80;;
6517;SDS011;3292;48.944;9.240;2024-03-06T06:14:07;9.13;;;8.13;;
6517;SDS011;3292;48.944;9.240;2024-03-06T06:16:35;9.80;;;8.60;;
6517;SDS011;3292;48.944;9.240;2024-03-06T06:19:02;9.93;;;8.93;;
6517;SDS011;3292;48.944;9.240;2024-03-06T06:21:32;10.27;;;9.13;;
6517;SDS011;3292;48.944;9.240;2024-03-06T06:24:00;9.60;;;8.57;;
6517;SDS011;3292;48.944;9.240;2024-03-06T06:26:28;10.53;;;8.37;;
6517;SDS011;3292;48.944;9.240;2024-03-06T06:28:55;10.73;;;9.07;;
6517;SDS011;3292;48.944;9.240;2024-03-06T06:31:22;9.77;;;8.77;;
6517;SDS011;3292;48.944;9.240;2024-03-06T06:33:50;11.23;;;9.03;;
6517;SDS011;3292;48.944;9.240;2024-03-06T06:36:17;10.07;;;8.17;;
6517;SDS011;3292;48.944;9.240;2024-03-06T06:38:46;10.00;;;9.03;;
6517;SDS011;3292;48.944;9.240;2024-03-06T06:41:13;13.27;;;8.93;;
6517;SDS011;3292;48.944;9.240;2024-03-06T06:43:40;13.13;;;9.03;;
6517;SDS011;3292;48.944;9.240;2024-03-06T06:46:07;9.73;;;8.73;;
6517;SDS011;3292;48.944;9.240;2024-03-06T06:48:34;15.03;;;9.93;;
6517;SDS011;3292;48.944;9.240;2024-03-06T06:51:01;12.37;;;9.63;;
6517;SDS011;3292;48.944;9.240;2024-03-06T06:53:28;12.93;;;9.10;;
6517;SDS011;3292;48.944;9.240;2024-03-06T06:55:56;11.20;;;9.40;;
6517;SDS011;3292;48.944;9.240;2024-03-06T06:58:23;14.43;;;10.07;;
6517;SDS011;3292;48.944;9.240;2024-03-06T07:00:52;11.47;;;10.23;;
6517;SDS011;3292;48.944;9.240;2024-03-06T07:03:19;11.47;;;10.27;;
6517;SDS011;3292;48.944;9.240;2024-03-06T07:05:46;12.93;;;10.30;;
6517;SDS011;3292;48.944;9.240;2024-03-06T07:08:13;12.83;;;10.27;;
6517;SDS011;3292;48.944;9.240;2024-03-06T07:10:40;12.43;;;10.50;;
6517;SDS011;3292;48.944;9.240;2024-03-06T07:13:08;13.23;;;10.77;;
6517;SDS011;3292;48.944;9.240;2024-03-06T07:15:35;13.97;;;10.70;;
6517;SDS011;3292;48.944;9.240;2024-03-06T07:18:02;14.90;;;11.23;;
6517;SDS011;3292;48.944;9.240;2024-03-06T07:20:30;14.07;;;11.37;;
6517;SDS011;3292;48.944;9.240;2024-03-06T07:22:57;15.27;;;11.00;;
6517;SDS011;3292;48.944;9.240;2024-03-06T07:25:23;14.93;;;11.77;;
6517;SDS011;3292;48.944;9.240;2024-03-06T07:27:50;12.20;;;10.90;;
6517;SDS011;3292;48.944;9.240;2024-03-06T07:30:19;15.60;;;11.63;;
6517;SDS011;3292;48.944;9.240;2024-03-06T07:32:47;14.50;;;11.40;;
6517;SDS011;3292;48.944;9.240;2024-03-06T07:35:14;13.13;;;11.03;;
6517;SDS011;3292;48.944;9.240;2024-03-06T07:37:42;15.03;;;11.50;;
6517;SDS011;3292;48.944;9.240;2024-03-06T07:40:10;18.07;;;11.77;;
6517;SDS011;3292;48.944;9.240;2024-03-06T07:42:37;17.83;;;12.67;;
6517;SDS011;3292;48.944;9.240;2024-03-06T07:45:04;13.47;;;11.53;;
6517;SDS011;3292;48.944;9.240;2024-03-06T07:47:33;15.40;;;11.63;;
6517;SDS011;3292;48.944;9.240;2024-03-06T07:50:03;13.70;;;11.73;;
6517;SDS011;3292;48.944;9.240;2024-03-06T07:52:31;14.27;;;11.90;;
6517;SDS011;3292;48.944;9.240;2024-03-06T07:54:58;16.00;;;12.40;;
6517;SDS011;3292;48.944;9.240;2024-03-06T07:57:24;14.00;;;11.00;;
6517;SDS011;3292;48.944;9.240;2024-03-06T07:59:51;12.43;;;10.97;;
6517;SDS011;3292;48.944;9.240;2024-03-06T08:02:19;14.50;;;11.17;;
6517;SDS011;3292;48.944;9.240;2024-03-06T08:04:48;13.67;;;11.00;;
6517;SDS011;3292;48.944;9.240;2024-03-06T08:07:15;14.90;;;10.87;;
6517;SDS011;3292;48.944;9.240;2024-03-06T08:09:41;13.63;;;11.37;;
6517;SDS011;3292;48.944;9.240;2024-03-06T08:12:08;15.53;;;11.50;;
6517;SDS011;3292;48.944;9.240;2024-03-06T08:14:35;14.13;;;11.97;;
6517;SDS011;3292;48.944;9.240;2024-03-06T08:17:02;13.60;;;11.60;;
6517;SDS011;3292;48.944;9.240;2024-03-06T08:19:29;13.20;;;10.90;;
6517;SDS011;3292;48.944;9.240;2024-03-06T08:21:57;188.60;;;35.07;;
6517;SDS011;3292;48.944;9.240;2024-03-06T08:24:24;24.77;;;11.97;;
6517;SDS011;3292;48.944;9.240;2024-03-06T08:26:50;13.07;;;10.57;;
6517;SDS011;3292;48.944;9.240;2024-03-06T08:29:17;13.17;;;10.97;;
6517;SDS011;3292;48.944;9.240;2024-03-06T08:31:44;43.50;;;16.27;;
6517;SDS011;3292;48.944;9.240;2024-03-06T08:34:11;17.43;;;12.27;;
6517;SDS011;3292;48.944;9.240;2024-03-06T08:36:38;12.77;;;11.10;;
6517;SDS011;3292;48.944;9.240;2024-03-06T08:39:06;14.27;;;11.30;;
6517;SDS011;3292;48.944;9.240;2024-03-06T08:41:37;16.70;;;11.83;;
6517;SDS011;3292;48.944;9.240;2024-03-06T08:44:04;15.70;;;11.03;;
6517;SDS011;3292;48.944;9.240;2024-03-06T08:46:31;15.03;;;10.73;;
6517;SDS011;3292;48.944;9.240;2024-03-06T08:48:58;14.90;;;11.93;;
6517;SDS011;3292;48.944;9.240;2024-03-06T08:51:25;12.87;;;10.03;;
6517;SDS011;3292;48.944;9.240;2024-03-06T08:53:52;14.33;;;10.60;;
6517;SDS011;3292;48.944;9.240;2024-03-06T08:56:20;11.63;;;10.00;;
6517;SDS011;3292;48.944;9.240;2024-03-06T08:58:47;11.33;;;10.13;;
6517;SDS011;3292;48.944;9.240;2024-03-06T09:01:14;12.37;;;9.50;;
6517;SDS011;3292;48.944;9.240;2024-03-06T09:03:41;12.23;;;9.57;;
6517;SDS011;3292;48.944;9.240;2024-03-06T09:06:08;13.73;;;9.90;;
6517;SDS011;3292;48.944;9.240;2024-03-06T09:08:35;13.70;;;9.73;;
6517;SDS011;3292;48.944;9.240;2024-03-06T09:11:03;10.93;;;9.53;;
6517;SDS011;3292;48.944;9.240;2024-03-06T09:13:31;11.83;;;9.03;;
6517;SDS011;3292;48.944;9.240;2024-03-06T09:15:58;10.53;;;9.13;;
6517;SDS011;3292;48.944;9.240;2024-03-06T09:18:25;13.97;;;9.87;;
6517;SDS011;3292;48.944;9.240;2024-03-06T09:20:52;11.50;;;9.77;;
6517;SDS011;3292;48.944;9.240;2024-03-06T09:23:19;10.67;;;9.67;;
6517;SDS011;3292;48.944;9.240;2024-03-06T09:25:46;10.27;;;9.00;;
6517;SDS011;3292;48.944;9.240;2024-03-06T09:28:13;10.93;;;9.83;;
6517;SDS011;3292;48.944;9.240;2024-03-06T09:30:41;10.13;;;9.13;;
6517;SDS011;3292;48.944;9.240;2024-03-06T09:33:08;12.67;;;9.83;;
6517;SDS011;3292;48.944;9.240;2024-03-06T09:35:35;10.63;;;9.53;;
6517;SDS011;3292;48.944;9.240;2024-03-06T09:38:02;11.80;;;9.43;;
6517;SDS011;3292;48.944;9.240;2024-03-06T09:40:29;13.50;;;10.03;;
6517;SDS011;3292;48.944;9.240;2024-03-06T09:42:56;11.27;;;10.07;;
6517;SDS011;3292;48.944;9.240;2024-03-06T09:45:24;11.77;;;10.47;;
6517;SDS011;3292;48.944;9.240;2024-03-06T09:47:52;12.90;;;10.33;;
6517;SDS011;3292;48.944;9.240;2024-03-06T09:50:22;15.17;;;11.73;;
6517;SDS011;3292;48.944;9.240;2024-03-06T09:52:50;14.93;;;12.60;;
6517;SDS011;3292;48.944;9.240;2024-03-06T09:55:19;14.77;;;11.77;;
6517;SDS011;3292;48.944;9.240;2024-03-06T09:57:46;13.40;;;11.97;;
6517;SDS011;3292;48.944;9.240;2024-03-06T10:00:13;13.47;;;11.97;;
6517;SDS011;3292;48.944;9.240;2024-03-06T10:02:41;15.13;;;12.57;;
6517;SDS011;3292;48.944;9.240;2024-03-06T10:05:24;15.03;;;13.27;;
6517;SDS011;3292;48.944;9.240;2024-03-06T10:07:52;15.53;;;12.60;;
6517;SDS011;3292;48.944;9.240;2024-03-06T10:10:19;15.63;;;13.90;;
6517;SDS011;3292;48.944;9.240;2024-03-06T10:12:47;16.87;;;12.97;;
6517;SDS011;3292;48.944;9.240;2024-03-06T10:15:15;15.43;;;13.37;;
6517;SDS011;3292;48.944;9.240;2024-03-06T10:17:42;17.70;;;13.13;;
6517;SDS011;3292;48.944;9.240;2024-03-06T10:20:17;17.07;;;15.07;;
6517;SDS011;3292;48.944;9.240;2024-03-06T10:22:47;18.03;;;15.30;;
6517;SDS011;3292;48.944;9.240;2024-03-06T10:25:17;21.63;;;17.37;;
6517;SDS011;3292;48.944;9.240;2024-03-06T10:27:45;18.27;;;15.40;;
6517;SDS011;3292;48.944;9.240;2024-03-06T10:30:13;17.73;;;15.43;;
6517;SDS011;3292;48.944;9.240;2024-03-06T10:32:41;21.83;;;16.77;;
6517;SDS011;3292;48.944;9.240;2024-03-06T10:35:17;16.50;;;14.17;;
6517;SDS011;3292;48.944;9.240;2024-03-06T10:37:44;19.90;;;16.43;;
6517;SDS011;3292;48.944;9.240;2024-03-06T10:40:13;18.07;;;16.17;;
6517;SDS011;3292;48.944;9.240;2024-03-06T10:42:43;19.47;;;15.67;;
6517;SDS011;3292;48.944;9.240;2024-03-06T10:45:13;17.97;;;15.90;;
6517;SDS011;3292;48.944;9.240;2024-03-06T10:47:42;18.27;;;16.13;;
6517;SDS011;3292;48.944;9.240;2024-03-06T10:50:13;20.37;;;17.03;;
6517;SDS011;3292;48.944;9.240;2024-03-06T10:52:41;19.90;;;17.80;;
6517;SDS011;3292;48.944;9.240;2024-03-06T10:55:13;20.40;;;18.13;;
6517;SDS011;3292;48.944;9.240;2024-03-06T10:57:41;24.00;;;17.20;;
6517;SDS011;3292;48.944;9.240;2024-03-06T11:00:10;21.83;;;18.63;;
6517;SDS011;3292;48.944;9.240;2024-03-06T11:02:42;20.40;;;17.47;;
6517;SDS011;3292;48.944;9.240;2024-03-06T11:05:13;18.10;;;15.97;;
6517;SDS011;3292;48.944;9.240;2024-03-06T11:07:40;20.70;;;16.77;;
6517;SDS011;3292;48.944;9.240;2024-03-06T11:10:08;19.13;;;17.13;;
6517;SDS011;3292;48.944;9.240;2024-03-06T11:12:42;22.27;;;17.90;;
6517;SDS011;3292;48.944;9.240;2024-03-06T11:15:13;22.03;;;17.40;;
6517;SDS011;3292;48.944;9.240;2024-03-06T11:17:40;19.43;;;16.23;;
6517;SDS011;3292;48.944;9.240;2024-03-06T11:20:08;20.53;;;17.13;;
6517;SDS011;3292;48.944;9.240;2024-03-06T11:28:36;20.70;;;16.17;;
6517;SDS011;3292;48.944;9.240;2024-03-06T11:31:06;20.50;;;16.97;;
6517;SDS011;3292;48.944;9.240;2024-03-06T11:33:36;22.77;;;17.43;;
6517;SDS011;3292;48.944;9.240;2024-03-06T11:36:17;20.60;;;16.67;;
6517;SDS011;3292;48.944;9.240;2024-03-06T11:38:46;19.07;;;17.03;;
6517;SDS011;3292;48.944;9.240;2024-03-06T11:41:14;19.13;;;16.80;;
6517;SDS011;3292;48.944;9.240;2024-03-06T11:43:43;21.27;;;17.07;;
6517;SDS011;3292;48.944;9.240;2024-03-06T11:46:11;20.03;;;17.50;;
6517;SDS011;3292;48.944;9.240;2024-03-06T11:48:38;23.07;;;18.30;;
6517;SDS011;3292;48.944;9.240;2024-03-06T11:51:05;19.40;;;17.23;;
6517;SDS011;3292;48.944;9.240;2024-03-06T11:53:33;22.20;;;18.23;;
6517;SDS011;3292;48.944;9.240;2024-03-06T11:56:01;20.47;;;17.70;;
6517;SDS011;3292;48.944;9.240;2024-03-06T11:58:32;22.57;;;18.63;;
6517;SDS011;3292;48.944;9.240;2024-03-06T12:01:00;21.50;;;18.60;;
6517;SDS011;3292;48.944;9.240;2024-03-06T12:03:29;22.47;;;19.03;;
6517;SDS011;3292;48.944;9.240;2024-03-06T12:05:57;21.83;;;18.07;;
6517;SDS011;3292;48.944;9.240;2024-03-06T12:08:24;23.00;;;18.63;;
6517;SDS011;3292;48.944;9.240;2024-03-06T12:10:51;24.57;;;18.00;;
6517;SDS011;3292;48.944;9.240;2024-03-06T12:13:20;22.03;;;19.07;;
6517;SDS011;3292;48.944;9.240;2024-03-06T12:15:47;20.07;;;17.00;;
6517;SDS011;3292;48.944;9.240;2024-03-06T12:18:17;20.53;;;18.17;;
6517;SDS011;3292;48.944;9.240;2024-03-06T12:20:44;22.33;;;19.13;;
6517;SDS011;3292;48.944;9.240;2024-03-06T12:23:18;23.07;;;18.03;;
6517;SDS011;3292;48.944;9.240;2024-03-06T12:25:47;22.73;;;18.50;;
6517;SDS011;3292;48.944;9.240;2024-03-06T12:28:14;20.83;;;18.50;;
6517;SDS011;3292;48.944;9.240;2024-03-06T12:30:41;21.67;;;18.50;;
6517;SDS011;3292;48.944;9.240;2024-03-06T12:33:09;22.63;;;19.07;;
6517;SDS011;3292;48.944;9.240;2024-03-06T12:35:41;24.20;;;19.37;;
6517;SDS011;3292;48.944;9.240;2024-03-06T12:38:11;23.73;;;18.67;;
6517;SDS011;3292;48.944;9.240;2024-03-06T12:40:39;23.97;;;20.07;;
6517;SDS011;3292;48.944;9.240;2024-03-06T12:43:05;23.10;;;19.63;;
6517;SDS011;3292;48.944;9.240;2024-03-06T12:45:33;25.97;;;19.87;;
6517;SDS011;3292;48.944;9.240;2024-03-06T12:48:00;25.90;;;20.43;;
6517;SDS011;3292;48.944;9.240;2024-03-06T12:50:29;24.73;;;21.10;;
6517;SDS011;3292;48.944;9.240;2024-03-06T12:52:58;25.40;;;21.07;;
6517;SDS011;3292;48.944;9.240;2024-03-06T12:55:24;27.20;;;22.53;;
6517;SDS011;3292;48.944;9.240;2024-03-06T12:57:51;31.20;;;22.33;;
6517;SDS011;3292;48.944;9.240;2024-03-06T13:00:18;29.27;;;24.13;;
6517;SDS011;3292;48.944;9.240;2024-03-06T13:02:45;28.90;;;24.17;;
6517;SDS011;3292;48.944;9.240;2024-03-06T13:05:12;28.07;;;24.87;;
6517;SDS011;3292;48.944;9.240;2024-03-06T13:07:39;29.43;;;25.23;;
6517;SDS011;3292;48.944;9.240;2024-03-06T13:10:09;33.93;;;26.37;;
6517;SDS011;3292;48.944;9.240;2024-03-06T13:12:36;30.93;;;26.67;;
6517;SDS011;3292;48.944;9.240;2024-03-06T13:15:04;33.00;;;26.97;;
6517;SDS011;3292;48.944;9.240;2024-03-06T13:17:32;34.03;;;26.73;;
6517;SDS011;3292;48.944;9.240;2024-03-06T13:19:59;32.73;;;26.37;;
6517;SDS011;3292;48.944;9.240;2024-03-06T13:22:26;30.93;;;25.77;;
6517;SDS011;3292;48.944;9.240;2024-03-06T13:24:53;33.33;;;27.37;;
6517;SDS011;3292;48.944;9.240;2024-03-06T13:27:21;29.93;;;26.57;;
6517;SDS011;3292;48.944;9.240;2024-03-06T13:29:48;31.37;;;27.00;;
6517;SDS011;3292;48.944;9.240;2024-03-06T13:32:16;31.90;;;27.37;;
6517;SDS011;3292;48.944;9.240;2024-03-06T13:34:42;30.80;;;26.97;;
6517;SDS011;3292;48.944;9.240;2024-03-06T13:37:10;30.67;;;26.63;;
6517;SDS011;3292;48.944;9.240;2024-03-06T13:39:36;32.87;;;27.63;;
6517;SDS011;3292;48.944;9.240;2024-03-06T13:42:04;31.57;;;27.27;;
6517;SDS011;3292;48.944;9.240;2024-03-06T13:44:34;33.77;;;26.83;;
6517;SDS011;3292;48.944;9.240;2024-03-06T13:47:01;32.30;;;27.30;;
6517;SDS011;3292;48.944;9.240;2024-03-06T13:49:38;34.90;;;27.77;;
6517;SDS011;3292;48.944;9.240;2024-03-06T13:52:06;33.53;;;27.53;;
6517;SDS011;3292;48.944;9.240;2024-03-06T13:54:35;33.77;;;27.17;;
6517;SDS011;3292;48.944;9.240;2024-03-06T13:57:03;33.20;;;27.53;;
6517;SDS011;3292;48.944;9.240;2024-03-06T13:59:30;34.87;;;29.37;;
6517;SDS011;3292;48.944;9.240;2024-03-06T14:01:59;33.40;;;27.80;;
6517;SDS011;3292;48.944;9.240;2024-03-06T14:04:26;34.30;;;27.40;;
6517;SDS011;3292;48.944;9.240;2024-03-06T14:06:53;32.93;;;28.10;;
6517;SDS011;3292;48.944;9.240;2024-03-06T14:09:22;40.00;;;29.40;;
6517;SDS011;3292;48.944;9.240;2024-03-06T14:11:50;35.03;;;27.80;;
6517;SDS011;3292;48.944;9.240;2024-03-06T14:14:17;38.13;;;27.37;;
6517;SDS011;3292;48.944;9.240;2024-03-06T14:16:43;38.67;;;28.47;;
6517;SDS011;3292;48.944;9.240;2024-03-06T14:19:12;35.83;;;27.67;;
6517;SDS011;3292;48.944;9.240;2024-03-06T14:21:39;33.53;;;27.67;;
6517;SDS011;3292;48.944;9.240;2024-03-06T14:24:06;37.10;;;27.87;;
6517;SDS011;3292;48.944;9.240;2024-03-06T14:26:34;37.77;;;28.07;;
6517;SDS011;3292;48.944;9.240;2024-03-06T14:29:01;39.33;;;29.63;;
6517;SDS011;3292;48.944;9.240;2024-03-06T14:31:31;42.83;;;30.03;;
6517;SDS011;3292;48.944;9.240;2024-03-06T14:33:58;40.23;;;30.50;;
6517;SDS011;3292;48.944;9.240;2024-03-06T14:36:26;40.83;;;31.83;;
6517;SDS011;3292;48.944;9.240;2024-03-06T14:38:53;39.27;;;29.93;;
6517;SDS011;3292;48.944;9.240;2024-03-06T14:41:20;38.57;;;31.23;;
6517;SDS011;3292;48.944;9.240;2024-03-06T14:43:47;62.97;;;42.60;;
6517;SDS011;3292;48.944;9.240;2024-03-06T14:46:14;45.83;;;34.10;;
6517;SDS011;3292;48.944;9.240;2024-03-06T14:48:41;43.10;;;33.03;;
6517;SDS011;3292;48.944;9.240;2024-03-06T14:51:07;40.80;;;31.03;;
6517;SDS011;3292;48.944;9.240;2024-03-06T14:53:36;44.70;;;33.80;;
6517;SDS011;3292;48.944;9.240;2024-03-06T14:56:03;45.03;;;31.53;;
6517;SDS011;3292;48.944;9.240;2024-03-06T14:58:31;44.47;;;32.60;;
6517;SDS011;3292;48.944;9.240;2024-03-06T15:00:57;45.83;;;37.20;;
6517;SDS011;3292;48.944;9.240;2024-03-06T15:03:24;41.70;;;32.23;;
6517;SDS011;3292;48.944;9.240;2024-03-06T15:05:51;43.07;;;32.27;;